createdAt,value
2018-03-21T00:00:07.011Z,0.00
2018-03-21T00:01:07.035Z,0.00
2018-03-21T00:02:07.035Z,0.00
2018-03-21T00:03:07.048Z,0.00
2018-03-21T00:04:07.056Z,0.00
2018-03-21T00:05:07.068Z,0.00
2018-03-21T00:06:07.087Z,0.00
2018-03-21T00:07:07.179Z,0.00
2018-03-21T00:08:07.107Z,0.00
2018-03-21T00:09:07.113Z,0.00
2018-03-21T00:10:07.119Z,0.00
2018-03-21T00:11:07.171Z,0.00
2018-03-21T00:12:07.179Z,0.00
2018-03-21T00:13:07.155Z,0.00
2018-03-21T00:14:07.167Z,0.00
2018-03-21T00:15:07.168Z,0.00
2018-03-21T00:16:07.188Z,0.00
2018-03-21T00:17:07.192Z,0.00
2018-03-21T00:18:07.205Z,0.00
2018-03-21T00:19:07.271Z,0.00
2018-03-21T00:20:07.235Z,0.00
2018-03-21T00:21:07.280Z,0.00
2018-03-21T00:22:07.240Z,0.00
2018-03-21T00:23:07.259Z,0.00
2018-03-21T00:24:07.309Z,0.00
2018-03-21T00:25:07.284Z,0.00
2018-03-21T00:26:07.292Z,0.00
2018-03-21T00:27:07.306Z,0.00
2018-03-21T00:28:07.308Z,0.00
2018-03-21T00:29:07.330Z,0.00
2018-03-21T00:30:07.328Z,0.00
2018-03-21T00:31:07.337Z,0.00
2018-03-21T00:32:07.352Z,0.00
2018-03-21T00:33:07.360Z,0.00
2018-03-21T00:34:07.368Z,0.00
2018-03-21T00:35:07.433Z,0.00
2018-03-21T00:36:07.389Z,0.00
2018-03-21T00:37:07.396Z,0.00
2018-03-21T00:38:07.410Z,0.00
2018-03-21T00:39:07.421Z,0.00
2018-03-21T00:40:07.432Z,0.00
2018-03-21T00:41:07.445Z,0.00
2018-03-21T00:42:07.450Z,0.00
2018-03-21T00:43:07.488Z,0.00
2018-03-21T00:44:07.522Z,0.00
2018-03-21T00:45:07.490Z,0.00
2018-03-21T00:46:07.496Z,0.00
2018-03-21T00:47:07.508Z,0.00
2018-03-21T00:48:07.528Z,0.00
2018-03-21T00:49:07.546Z,0.00
2018-03-21T00:50:07.552Z,0.00
2018-03-21T00:51:07.553Z,0.00
2018-03-21T00:52:07.574Z,0.00
2018-03-21T00:53:07.573Z,0.00
2018-03-21T00:54:07.573Z,0.00
2018-03-21T00:55:07.594Z,0.00
2018-03-21T00:56:07.592Z,0.00
2018-03-21T00:57:07.631Z,0.00
2018-03-21T00:58:07.620Z,0.00
2018-03-21T00:59:07.631Z,0.00
2018-03-21T01:00:07.673Z,0.00
2018-03-21T01:01:07.645Z,0.00
2018-03-21T01:02:07.681Z,0.00
2018-03-21T01:03:07.669Z,0.00
2018-03-21T01:04:07.669Z,0.00
2018-03-21T01:05:07.710Z,0.00
2018-03-21T01:06:07.700Z,0.00
2018-03-21T01:07:07.718Z,0.00
2018-03-21T01:08:07.722Z,0.00
2018-03-21T01:09:07.740Z,0.00
2018-03-21T01:10:07.734Z,0.00
2018-03-21T01:11:07.792Z,0.00
2018-03-21T01:12:07.772Z,0.00
2018-03-21T01:13:07.757Z,0.00
2018-03-21T01:14:07.772Z,0.00
2018-03-21T01:15:07.792Z,0.00
2018-03-21T01:16:07.807Z,0.00
2018-03-21T01:17:07.806Z,0.00
2018-03-21T01:18:07.823Z,0.00
2018-03-21T01:19:07.835Z,0.00
2018-03-21T01:20:07.828Z,0.00
2018-03-21T01:21:07.881Z,0.00
2018-03-21T01:22:07.855Z,0.00
2018-03-21T01:23:07.874Z,0.00
2018-03-21T01:24:07.932Z,0.00
2018-03-21T01:25:07.906Z,0.00
2018-03-21T01:26:07.889Z,0.00
2018-03-21T01:27:07.922Z,0.00
2018-03-21T01:28:07.923Z,0.00
2018-03-21T01:29:07.921Z,0.00
2018-03-21T01:30:07.956Z,0.00
2018-03-21T01:31:07.942Z,0.00
2018-03-21T01:32:07.951Z,0.00
2018-03-21T01:33:07.974Z,0.00
2018-03-21T01:34:07.969Z,0.00
2018-03-21T01:35:07.990Z,0.00
2018-03-21T01:36:07.996Z,0.00
2018-03-21T01:37:08.030Z,0.00
2018-03-21T01:38:08.011Z,0.00
2018-03-21T01:39:08.020Z,0.00
2018-03-21T01:40:08.058Z,0.00
2018-03-21T01:41:08.040Z,0.00
2018-03-21T01:42:08.052Z,0.00
2018-03-21T01:43:08.056Z,0.00
2018-03-21T01:44:08.099Z,0.00
2018-03-21T01:45:08.081Z,0.00
2018-03-21T01:46:08.097Z,0.00
2018-03-21T01:47:08.097Z,0.00
2018-03-21T01:48:08.125Z,0.00
2018-03-21T01:49:08.162Z,0.00
2018-03-21T01:50:08.135Z,0.00
2018-03-21T01:51:08.155Z,0.00
2018-03-21T01:52:08.149Z,0.00
2018-03-21T01:53:08.158Z,0.00
2018-03-21T01:54:08.176Z,0.00
2018-03-21T01:55:08.179Z,0.00
2018-03-21T01:56:08.184Z,0.00
2018-03-21T01:57:08.224Z,0.00
2018-03-21T01:58:08.205Z,0.00
2018-03-21T01:59:08.225Z,0.00
2018-03-21T02:00:08.235Z,0.00
2018-03-21T02:01:08.248Z,0.00
2018-03-21T02:02:08.251Z,0.00
2018-03-21T02:03:08.254Z,0.00
2018-03-21T02:04:08.261Z,0.00
2018-03-21T02:05:08.283Z,0.00
2018-03-21T02:06:08.289Z,0.00
2018-03-21T02:07:08.306Z,0.00
2018-03-21T02:08:08.307Z,0.00
2018-03-21T02:09:08.319Z,0.00
2018-03-21T02:10:08.365Z,0.00
2018-03-21T02:11:08.350Z,0.00
2018-03-21T02:12:08.347Z,0.00
2018-03-21T02:13:08.351Z,0.00
2018-03-21T02:14:08.359Z,0.00
2018-03-21T02:15:08.393Z,0.00
2018-03-21T02:16:08.428Z,0.00
2018-03-21T02:17:08.438Z,0.00
2018-03-21T02:18:08.404Z,0.00
2018-03-21T02:19:08.422Z,0.00
2018-03-21T02:20:08.431Z,0.00
2018-03-21T02:21:08.445Z,0.00
2018-03-21T02:22:08.449Z,0.00
2018-03-21T02:23:08.456Z,0.00
2018-03-21T02:24:08.458Z,0.00
2018-03-21T02:25:08.487Z,0.00
2018-03-21T02:26:08.488Z,0.00
2018-03-21T02:27:08.499Z,0.00
2018-03-21T02:28:08.554Z,0.00
2018-03-21T02:29:08.507Z,0.00
2018-03-21T02:30:08.529Z,0.00
2018-03-21T02:31:08.547Z,0.00
2018-03-21T02:32:08.545Z,0.00
2018-03-21T02:33:08.556Z,0.00
2018-03-21T02:34:08.596Z,0.00
2018-03-21T02:35:08.575Z,0.00
2018-03-21T02:36:08.572Z,0.00
2018-03-21T02:37:08.606Z,0.00
2018-03-21T02:38:08.610Z,0.00
2018-03-21T02:39:08.611Z,0.00
2018-03-21T02:40:08.630Z,0.00
2018-03-21T02:41:08.639Z,0.00
2018-03-21T02:42:08.642Z,0.00
2018-03-21T02:43:08.640Z,0.00
2018-03-21T02:44:08.652Z,0.00
2018-03-21T02:45:08.664Z,0.00
2018-03-21T02:46:08.677Z,0.00
2018-03-21T02:47:08.698Z,0.00
2018-03-21T02:48:08.694Z,0.00
2018-03-21T02:49:08.707Z,0.00
2018-03-21T02:50:08.729Z,0.00
2018-03-21T02:51:08.717Z,0.00
2018-03-21T02:52:08.736Z,0.00
2018-03-21T02:53:08.741Z,0.00
2018-03-21T02:54:08.752Z,0.00
2018-03-21T02:55:08.773Z,0.00
2018-03-21T02:56:08.806Z,0.00
2018-03-21T02:57:08.789Z,0.00
2018-03-21T02:58:08.821Z,0.00
2018-03-21T02:59:08.808Z,0.00
2018-03-21T03:00:08.805Z,0.00
2018-03-21T03:01:08.822Z,0.00
2018-03-21T03:02:08.831Z,0.00
2018-03-21T03:03:08.854Z,0.00
2018-03-21T03:04:08.858Z,0.00
2018-03-21T03:05:08.858Z,0.00
2018-03-21T03:06:08.868Z,0.00
2018-03-21T03:07:08.894Z,0.00
2018-03-21T03:08:08.905Z,0.00
2018-03-21T03:09:08.911Z,0.00
2018-03-21T03:10:08.902Z,0.00
2018-03-21T03:11:08.923Z,0.00
2018-03-21T03:12:08.922Z,0.00
2018-03-21T03:13:08.939Z,0.00
2018-03-21T03:14:08.958Z,0.00
2018-03-21T03:15:08.966Z,0.00
2018-03-21T03:16:08.990Z,0.00
2018-03-21T03:17:08.978Z,0.00
2018-03-21T03:18:08.976Z,0.00
2018-03-21T03:19:08.988Z,0.00
2018-03-21T03:20:09.011Z,0.00
2018-03-21T03:21:09.004Z,0.00
2018-03-21T03:22:09.045Z,0.00
2018-03-21T03:23:09.036Z,0.00
2018-03-21T03:24:09.073Z,0.00
2018-03-21T03:25:09.047Z,0.00
2018-03-21T03:26:09.048Z,0.00
2018-03-21T03:27:09.065Z,0.00
2018-03-21T03:28:09.079Z,0.00
2018-03-21T03:29:09.106Z,0.00
2018-03-21T03:30:09.113Z,0.00
2018-03-21T03:31:09.109Z,0.00
2018-03-21T03:32:09.122Z,0.00
2018-03-21T03:33:09.125Z,0.00
2018-03-21T03:34:09.127Z,0.00
2018-03-21T03:35:09.144Z,0.00
2018-03-21T03:36:09.146Z,0.00
2018-03-21T03:37:09.190Z,0.00
2018-03-21T03:38:09.174Z,0.00
2018-03-21T03:39:09.178Z,0.00
2018-03-21T03:40:09.180Z,0.00
2018-03-21T03:41:09.195Z,0.00
2018-03-21T03:42:09.208Z,0.00
2018-03-21T03:43:09.223Z,0.00
2018-03-21T03:44:09.246Z,0.00
2018-03-21T03:45:09.258Z,0.00
2018-03-21T03:46:09.255Z,0.00
2018-03-21T03:47:09.247Z,0.00
2018-03-21T03:48:09.288Z,0.00
2018-03-21T03:49:09.284Z,0.00
2018-03-21T03:50:09.278Z,0.00
2018-03-21T03:51:09.294Z,0.00
2018-03-21T03:52:09.293Z,0.00
2018-03-21T03:53:09.338Z,0.00
2018-03-21T03:54:09.315Z,0.00
2018-03-21T03:55:09.377Z,0.00
2018-03-21T03:56:09.335Z,0.00
2018-03-21T03:57:09.347Z,0.00
2018-03-21T03:58:09.359Z,0.00
2018-03-21T03:59:09.411Z,0.00
2018-03-21T04:00:09.372Z,0.00
2018-03-21T04:01:09.383Z,0.00
2018-03-21T04:02:09.389Z,0.00
2018-03-21T04:03:09.411Z,0.00
2018-03-21T04:04:09.405Z,0.00
2018-03-21T04:05:09.445Z,0.00
2018-03-21T04:06:09.421Z,0.00
2018-03-21T04:07:09.436Z,0.00
2018-03-21T04:08:09.470Z,0.00
2018-03-21T04:09:09.466Z,0.00
2018-03-21T04:10:09.468Z,0.00
2018-03-21T04:11:09.478Z,0.00
2018-03-21T04:12:09.494Z,0.00
2018-03-21T04:13:09.497Z,0.00
2018-03-21T04:14:09.523Z,0.00
2018-03-21T04:15:09.504Z,0.00
2018-03-21T04:16:09.522Z,0.00
2018-03-21T04:17:09.533Z,0.00
2018-03-21T04:18:09.532Z,0.00
2018-03-21T04:19:09.570Z,0.00
2018-03-21T04:20:09.562Z,0.00
2018-03-21T04:21:09.575Z,0.00
2018-03-21T04:22:09.596Z,0.00
2018-03-21T04:23:09.611Z,0.00
2018-03-21T04:24:09.604Z,0.00
2018-03-21T04:25:09.606Z,0.00
2018-03-21T04:26:09.655Z,0.00
2018-03-21T04:27:09.621Z,0.00
2018-03-21T04:28:09.632Z,0.00
2018-03-21T04:29:09.634Z,0.00
2018-03-21T04:30:09.661Z,0.00
2018-03-21T04:31:09.673Z,0.00
2018-03-21T04:32:09.694Z,0.00
2018-03-21T04:33:09.689Z,0.00
2018-03-21T04:34:09.704Z,0.00
2018-03-21T04:35:09.712Z,0.00
2018-03-21T04:36:09.698Z,0.00
2018-03-21T04:37:09.712Z,0.00
2018-03-21T04:38:09.730Z,0.00
2018-03-21T04:39:09.731Z,0.00
2018-03-21T04:40:09.762Z,0.00
2018-03-21T04:41:09.750Z,0.00
2018-03-21T04:42:09.769Z,0.00
2018-03-21T04:43:09.808Z,0.00
2018-03-21T04:44:09.775Z,0.00
2018-03-21T04:45:09.780Z,0.00
2018-03-21T04:46:09.804Z,0.00
2018-03-21T04:47:09.831Z,0.00
2018-03-21T04:48:09.814Z,0.00
2018-03-21T04:49:09.831Z,0.00
2018-03-21T04:50:09.853Z,0.00
2018-03-21T04:51:09.847Z,0.00
2018-03-21T04:52:09.879Z,0.00
2018-03-21T04:53:09.862Z,0.00
2018-03-21T04:54:09.882Z,0.00
2018-03-21T04:55:09.909Z,0.00
2018-03-21T04:56:09.893Z,0.00
2018-03-21T04:57:09.900Z,0.00
2018-03-21T04:58:09.903Z,0.00
2018-03-21T04:59:09.914Z,0.00
2018-03-21T05:00:09.955Z,0.00
2018-03-21T05:01:09.928Z,0.00
2018-03-21T05:02:09.949Z,0.00
2018-03-21T05:03:09.977Z,0.00
2018-03-21T05:04:09.953Z,0.00
2018-03-21T05:05:09.960Z,0.00
2018-03-21T05:06:09.975Z,0.00
2018-03-21T05:07:09.991Z,0.00
2018-03-21T05:08:10.002Z,0.00
2018-03-21T05:09:10.002Z,0.00
2018-03-21T05:10:10.011Z,5.63
2018-03-21T05:11:10.021Z,5.63
2018-03-21T05:12:10.042Z,5.63
2018-03-21T05:13:10.053Z,5.63
2018-03-21T05:14:10.044Z,5.63
2018-03-21T05:15:10.053Z,5.63
2018-03-21T05:16:10.064Z,5.63
2018-03-21T05:17:10.070Z,11.25
2018-03-21T05:18:10.083Z,11.25
2018-03-21T05:19:10.095Z,11.25
2018-03-21T05:20:10.119Z,11.25
2018-03-21T05:21:10.108Z,16.88
2018-03-21T05:22:10.125Z,16.88
2018-03-21T05:23:10.133Z,16.88
2018-03-21T05:24:10.139Z,22.50
2018-03-21T05:25:10.151Z,22.50
2018-03-21T05:26:10.181Z,22.50
2018-03-21T05:27:10.175Z,28.13
2018-03-21T05:28:10.201Z,28.13
2018-03-21T05:29:10.184Z,28.13
2018-03-21T05:30:10.195Z,33.75
2018-03-21T05:31:10.210Z,33.75
2018-03-21T05:32:10.213Z,39.38
2018-03-21T05:33:10.255Z,39.38
2018-03-21T05:34:10.239Z,45.00
2018-03-21T05:35:10.239Z,45.00
2018-03-21T05:36:10.253Z,50.63
2018-03-21T05:37:10.257Z,50.63
2018-03-21T05:38:10.270Z,56.25
2018-03-21T05:39:10.272Z,56.25
2018-03-21T05:40:10.289Z,61.88
2018-03-21T05:41:10.303Z,61.88
2018-03-21T05:42:10.301Z,67.50
2018-03-21T05:43:10.338Z,73.13
2018-03-21T05:44:10.317Z,73.13
2018-03-21T05:45:10.327Z,78.75
2018-03-21T05:46:10.338Z,78.75
2018-03-21T05:47:10.375Z,84.38
2018-03-21T05:48:10.373Z,84.38
2018-03-21T05:49:10.362Z,90.00
2018-03-21T05:50:10.435Z,90.00
2018-03-21T05:51:10.400Z,95.63
2018-03-21T05:52:10.402Z,95.63
2018-03-21T05:53:10.410Z,95.63
2018-03-21T05:54:10.418Z,101.25
2018-03-21T05:55:10.434Z,106.88
2018-03-21T05:56:10.444Z,106.88
2018-03-21T05:57:10.448Z,112.50
2018-03-21T05:58:10.463Z,118.13
2018-03-21T05:59:10.515Z,129.38
2018-03-21T06:00:10.478Z,241.88
2018-03-21T06:01:10.497Z,405.00
2018-03-21T06:02:10.546Z,540.00
2018-03-21T06:03:10.509Z,568.13
2018-03-21T06:04:10.513Z,596.25
2018-03-21T06:05:10.518Z,618.75
2018-03-21T06:06:10.528Z,618.75
2018-03-21T06:07:10.556Z,641.25
2018-03-21T06:08:10.553Z,675.00
2018-03-21T06:09:10.569Z,613.13
2018-03-21T06:10:10.580Z,483.75
2018-03-21T06:11:10.583Z,466.88
2018-03-21T06:12:10.596Z,618.75
2018-03-21T06:13:10.636Z,680.63
2018-03-21T06:14:10.629Z,630.00
2018-03-21T06:15:10.654Z,708.75
2018-03-21T06:16:10.677Z,810.00
2018-03-21T06:17:10.669Z,838.13
2018-03-21T06:18:10.687Z,855.00
2018-03-21T06:19:10.706Z,855.00
2018-03-21T06:20:10.717Z,855.00
2018-03-21T06:21:10.746Z,871.88
2018-03-21T06:22:10.744Z,883.13
2018-03-21T06:23:10.768Z,916.88
2018-03-21T06:24:10.773Z,928.13
2018-03-21T06:25:10.789Z,950.63
2018-03-21T06:26:10.843Z,978.75
2018-03-21T06:27:10.902Z,967.50
2018-03-21T06:28:10.846Z,939.38
2018-03-21T06:29:10.853Z,995.63
2018-03-21T06:30:10.887Z,1029.38
2018-03-21T06:31:10.894Z,1040.63
2018-03-21T06:32:10.922Z,1040.63
2018-03-21T06:33:10.928Z,1074.38
2018-03-21T06:34:11.034Z,1080.00
2018-03-21T06:35:10.974Z,1018.13
2018-03-21T06:36:10.979Z,973.13
2018-03-21T06:37:10.996Z,984.38
2018-03-21T06:38:11.018Z,984.38
2018-03-21T06:39:11.039Z,978.75
2018-03-21T06:40:11.048Z,922.50
2018-03-21T06:41:11.088Z,810.00
2018-03-21T06:42:11.099Z,736.88
2018-03-21T06:43:11.112Z,849.38
2018-03-21T06:44:11.127Z,911.25
2018-03-21T06:45:11.150Z,967.50
2018-03-21T06:46:11.170Z,1018.13
2018-03-21T06:47:11.182Z,905.63
2018-03-21T06:48:11.215Z,916.88
2018-03-21T06:49:11.221Z,843.75
2018-03-21T06:50:11.235Z,1102.50
2018-03-21T06:51:11.258Z,1265.63
2018-03-21T06:52:11.271Z,1209.38
2018-03-21T06:53:11.322Z,1265.63
2018-03-21T06:54:11.312Z,1260.00
2018-03-21T06:55:11.394Z,1282.50
2018-03-21T06:56:11.372Z,1254.38
2018-03-21T06:57:11.370Z,1305.00
2018-03-21T06:58:11.409Z,1299.38
2018-03-21T06:59:11.409Z,1282.50
2018-03-21T07:00:11.428Z,1361.25
2018-03-21T07:01:11.491Z,1293.75
2018-03-21T07:02:11.494Z,1282.50
2018-03-21T07:03:11.489Z,1265.63
2018-03-21T07:04:11.506Z,1316.25
2018-03-21T07:05:11.552Z,1355.63
2018-03-21T07:06:11.542Z,1406.25
2018-03-21T07:07:11.573Z,1338.75
2018-03-21T07:08:11.603Z,1321.88
2018-03-21T07:09:11.608Z,1338.75
2018-03-21T07:10:11.650Z,1400.63
2018-03-21T07:11:11.646Z,1276.88
2018-03-21T07:12:11.671Z,1276.88
2018-03-21T07:13:11.695Z,1147.50
2018-03-21T07:14:11.705Z,1141.88
2018-03-21T07:15:11.733Z,1355.63
2018-03-21T07:16:11.749Z,1473.75
2018-03-21T07:17:11.789Z,1490.63
2018-03-21T07:18:11.797Z,1507.50
2018-03-21T07:19:11.823Z,1434.38
2018-03-21T07:20:11.844Z,1451.25
2018-03-21T07:21:11.893Z,1108.13
2018-03-21T07:22:11.920Z,1108.13
2018-03-21T07:23:11.922Z,950.63
2018-03-21T07:24:11.938Z,815.63
2018-03-21T07:25:11.935Z,675.00
2018-03-21T07:26:11.969Z,731.25
2018-03-21T07:27:11.994Z,900.00
2018-03-21T07:28:11.999Z,1186.88
2018-03-21T07:29:12.085Z,1321.88
2018-03-21T07:30:12.064Z,1479.38
2018-03-21T07:31:12.077Z,1479.38
2018-03-21T07:32:12.101Z,1496.25
2018-03-21T07:33:12.120Z,1558.13
2018-03-21T07:34:12.126Z,1648.13
2018-03-21T07:35:12.138Z,1642.50
2018-03-21T07:36:12.163Z,1614.38
2018-03-21T07:37:12.187Z,1704.38
2018-03-21T07:38:12.208Z,1704.38
2018-03-21T07:39:12.228Z,1513.13
2018-03-21T07:40:12.242Z,1569.38
2018-03-21T07:41:12.338Z,1620.00
2018-03-21T07:42:12.295Z,1693.13
2018-03-21T07:43:12.325Z,1507.50
2018-03-21T07:44:12.328Z,1586.25
2018-03-21T07:45:12.347Z,1344.38
2018-03-21T07:46:12.377Z,933.75
2018-03-21T07:47:12.386Z,798.75
2018-03-21T07:48:12.403Z,787.50
2018-03-21T07:49:12.424Z,804.38
2018-03-21T07:50:12.448Z,810.00
2018-03-21T07:51:12.480Z,838.13
2018-03-21T07:52:12.488Z,838.13
2018-03-21T07:53:12.555Z,838.13
2018-03-21T07:54:12.538Z,849.38
2018-03-21T07:55:12.558Z,905.63
2018-03-21T07:56:12.603Z,956.25
2018-03-21T07:57:12.594Z,1040.63
2018-03-21T07:58:12.706Z,1164.38
2018-03-21T07:59:12.657Z,1215.00
2018-03-21T08:00:12.679Z,1186.88
2018-03-21T08:01:12.675Z,1215.00
2018-03-21T08:02:12.716Z,1237.50
2018-03-21T08:03:12.727Z,1231.88
2018-03-21T08:04:12.752Z,1501.88
2018-03-21T08:05:12.758Z,1490.63
2018-03-21T08:06:12.780Z,1541.25
2018-03-21T08:07:12.809Z,1518.75
2018-03-21T08:08:12.873Z,1546.88
2018-03-21T08:09:12.839Z,1614.38
2018-03-21T08:10:12.864Z,1541.25
2018-03-21T08:11:12.888Z,1473.75
2018-03-21T08:12:12.912Z,1541.25
2018-03-21T08:13:12.926Z,1490.63
2018-03-21T08:14:12.949Z,1507.50
2018-03-21T08:15:12.979Z,1563.75
2018-03-21T08:16:12.987Z,1552.50
2018-03-21T08:17:13.008Z,1653.75
2018-03-21T08:18:13.070Z,1676.25
2018-03-21T08:19:13.048Z,1687.50
2018-03-21T08:20:13.090Z,1653.75
2018-03-21T08:21:13.094Z,1507.50
2018-03-21T08:22:13.120Z,1462.50
2018-03-21T08:23:13.138Z,1636.88
2018-03-21T08:24:13.153Z,1642.50
2018-03-21T08:25:13.179Z,1603.13
2018-03-21T08:26:13.203Z,1513.13
2018-03-21T08:27:13.231Z,1541.25
2018-03-21T08:28:13.240Z,1513.13
2018-03-21T08:29:13.265Z,1524.38
2018-03-21T08:30:13.291Z,1468.13
2018-03-21T08:31:13.297Z,1350.00
2018-03-21T08:32:13.324Z,1417.50
2018-03-21T08:33:13.352Z,1507.50
2018-03-21T08:34:13.357Z,1518.75
2018-03-21T08:35:13.384Z,1243.13
2018-03-21T08:36:13.399Z,540.00
2018-03-21T08:37:13.434Z,376.88
2018-03-21T08:38:13.456Z,365.63
2018-03-21T08:39:13.487Z,360.00
2018-03-21T08:40:13.478Z,354.38
2018-03-21T08:41:13.521Z,354.38
2018-03-21T08:42:13.507Z,348.75
2018-03-21T08:43:13.546Z,348.75
2018-03-21T08:44:13.548Z,348.75
2018-03-21T08:45:13.573Z,348.75
2018-03-21T08:46:13.580Z,348.75
2018-03-21T08:47:13.599Z,354.38
2018-03-21T08:48:13.673Z,354.38
2018-03-21T08:49:13.639Z,360.00
2018-03-21T08:50:13.673Z,354.38
2018-03-21T08:51:13.671Z,360.00
2018-03-21T08:52:13.680Z,354.38
2018-03-21T08:53:13.721Z,354.38
2018-03-21T08:54:13.745Z,360.00
2018-03-21T08:55:13.753Z,360.00
2018-03-21T08:56:13.753Z,376.88
2018-03-21T08:57:13.808Z,376.88
2018-03-21T08:58:13.788Z,376.88
2018-03-21T08:59:13.802Z,388.13
2018-03-21T09:00:13.837Z,382.50
2018-03-21T09:01:13.834Z,388.13
2018-03-21T09:02:13.856Z,388.13
2018-03-21T09:03:13.857Z,393.75
2018-03-21T09:04:13.900Z,393.75
2018-03-21T09:05:13.896Z,382.50
2018-03-21T09:06:13.908Z,376.88
2018-03-21T09:07:13.936Z,382.50
2018-03-21T09:08:13.952Z,393.75
2018-03-21T09:09:13.954Z,393.75
2018-03-21T09:10:13.977Z,393.75
2018-03-21T09:11:13.985Z,393.75
2018-03-21T09:12:14.028Z,393.75
2018-03-21T09:13:14.024Z,399.38
2018-03-21T09:14:14.036Z,405.00
2018-03-21T09:15:14.052Z,405.00
2018-03-21T09:16:14.071Z,416.25
2018-03-21T09:17:14.153Z,410.63
2018-03-21T09:18:14.149Z,421.88
2018-03-21T09:19:14.180Z,427.50
2018-03-21T09:20:14.137Z,438.75
2018-03-21T09:21:14.152Z,450.00
2018-03-21T09:22:14.164Z,455.63
2018-03-21T09:23:14.170Z,455.63
2018-03-21T09:24:14.202Z,450.00
2018-03-21T09:25:14.285Z,455.63
2018-03-21T09:26:14.219Z,444.38
2018-03-21T09:27:14.242Z,438.75
2018-03-21T09:28:14.253Z,438.75
2018-03-21T09:29:14.292Z,427.50
2018-03-21T09:30:14.287Z,421.88
2018-03-21T09:31:14.308Z,416.25
2018-03-21T09:32:14.317Z,416.25
2018-03-21T09:33:14.342Z,405.00
2018-03-21T09:34:14.342Z,399.38
2018-03-21T09:35:14.385Z,399.38
2018-03-21T09:36:14.386Z,393.75
2018-03-21T09:37:14.432Z,410.63
2018-03-21T09:38:14.425Z,421.88
2018-03-21T09:39:14.429Z,421.88
2018-03-21T09:40:14.450Z,427.50
2018-03-21T09:41:14.507Z,433.13
2018-03-21T09:42:14.484Z,433.13
2018-03-21T09:43:14.496Z,433.13
2018-03-21T09:44:14.513Z,438.75
2018-03-21T09:45:14.527Z,444.38
2018-03-21T09:46:14.545Z,450.00
2018-03-21T09:47:14.554Z,444.38
2018-03-21T09:48:14.599Z,444.38
2018-03-21T09:49:14.596Z,438.75
2018-03-21T09:50:14.605Z,438.75
2018-03-21T09:51:14.633Z,438.75
2018-03-21T09:52:14.637Z,427.50
2018-03-21T09:53:14.659Z,421.88
2018-03-21T09:54:14.676Z,410.63
2018-03-21T09:55:14.699Z,416.25
2018-03-21T09:56:14.706Z,416.25
2018-03-21T09:57:14.743Z,416.25
2018-03-21T09:58:14.778Z,416.25
2018-03-21T09:59:14.763Z,416.25
2018-03-21T10:00:14.771Z,421.88
2018-03-21T10:01:14.794Z,421.88
2018-03-21T10:02:14.817Z,416.25
2018-03-21T10:03:14.823Z,421.88
2018-03-21T10:04:14.861Z,427.50
2018-03-21T10:05:14.845Z,421.88
2018-03-21T10:06:14.893Z,433.13
2018-03-21T10:07:14.915Z,433.13
2018-03-21T10:08:14.905Z,438.75
2018-03-21T10:09:14.911Z,444.38
2018-03-21T10:10:14.939Z,438.75
2018-03-21T10:11:14.994Z,444.38
2018-03-21T10:12:14.961Z,450.00
2018-03-21T10:13:14.972Z,444.38
2018-03-21T10:14:14.994Z,438.75
2018-03-21T10:15:15.013Z,427.50
2018-03-21T10:16:15.022Z,433.13
2018-03-21T10:17:15.033Z,421.88
2018-03-21T10:18:15.068Z,427.50
2018-03-21T10:19:15.091Z,421.88
2018-03-21T10:20:15.091Z,421.88
2018-03-21T10:21:15.108Z,421.88
2018-03-21T10:22:15.128Z,427.50
2018-03-21T10:23:15.148Z,421.88
2018-03-21T10:24:15.146Z,427.50
2018-03-21T10:25:15.165Z,421.88
2018-03-21T10:26:15.195Z,421.88
2018-03-21T10:27:15.198Z,421.88
2018-03-21T10:28:15.213Z,416.25
2018-03-21T10:29:15.274Z,416.25
2018-03-21T10:30:15.258Z,410.63
2018-03-21T10:31:15.273Z,405.00
2018-03-21T10:32:15.295Z,405.00
2018-03-21T10:33:15.304Z,399.38
2018-03-21T10:34:15.315Z,399.38
2018-03-21T10:35:15.323Z,388.13
2018-03-21T10:36:15.357Z,382.50
2018-03-21T10:37:15.371Z,376.88
2018-03-21T10:38:15.380Z,376.88
2018-03-21T10:39:15.418Z,371.25
2018-03-21T10:40:15.421Z,365.63
2018-03-21T10:41:15.436Z,371.25
2018-03-21T10:42:15.434Z,365.63
2018-03-21T10:43:15.468Z,365.63
2018-03-21T10:44:15.473Z,360.00
2018-03-21T10:45:15.499Z,371.25
2018-03-21T10:46:15.500Z,371.25
2018-03-21T10:47:15.521Z,376.88
2018-03-21T10:48:15.571Z,376.88
2018-03-21T10:49:15.562Z,382.50
2018-03-21T10:50:15.591Z,388.13
2018-03-21T10:51:15.606Z,382.50
2018-03-21T10:52:15.613Z,388.13
2018-03-21T10:53:15.619Z,382.50
2018-03-21T10:54:15.634Z,388.13
2018-03-21T10:55:15.689Z,388.13
2018-03-21T10:56:15.663Z,393.75
2018-03-21T10:57:15.687Z,388.13
2018-03-21T10:58:15.698Z,382.50
2018-03-21T10:59:15.739Z,376.88
2018-03-21T11:00:15.741Z,388.13
2018-03-21T11:01:15.743Z,393.75
2018-03-21T11:02:15.770Z,399.38
2018-03-21T11:03:15.826Z,376.88
2018-03-21T11:04:15.804Z,376.88
2018-03-21T11:05:15.826Z,376.88
2018-03-21T11:06:15.835Z,371.25
2018-03-21T11:07:15.846Z,371.25
2018-03-21T11:08:15.855Z,354.38
2018-03-21T11:09:15.875Z,337.50
2018-03-21T11:10:15.892Z,331.88
2018-03-21T11:11:15.901Z,326.25
2018-03-21T11:12:15.928Z,320.63
2018-03-21T11:13:15.969Z,320.63
2018-03-21T11:14:16.002Z,315.00
2018-03-21T11:15:15.975Z,320.63
2018-03-21T11:16:16.043Z,326.25
2018-03-21T11:17:16.012Z,326.25
2018-03-21T11:18:16.025Z,331.88
2018-03-21T11:19:16.053Z,331.88
2018-03-21T11:20:16.066Z,326.25
2018-03-21T11:21:16.077Z,331.88
2018-03-21T11:22:16.082Z,331.88
2018-03-21T11:23:16.124Z,331.88
2018-03-21T11:24:16.134Z,320.63
2018-03-21T11:25:16.161Z,309.38
2018-03-21T11:26:16.140Z,309.38
2018-03-21T11:27:16.172Z,298.13
2018-03-21T11:28:16.240Z,298.13
2018-03-21T11:29:16.198Z,286.88
2018-03-21T11:30:16.229Z,281.25
2018-03-21T11:31:16.221Z,281.25
2018-03-21T11:32:16.282Z,281.25
2018-03-21T11:33:16.264Z,275.63
2018-03-21T11:34:16.288Z,270.00
2018-03-21T11:35:16.295Z,270.00
2018-03-21T11:36:16.310Z,270.00
2018-03-21T11:37:16.343Z,270.00
2018-03-21T11:38:16.333Z,270.00
2018-03-21T11:39:16.354Z,264.38
2018-03-21T11:40:16.381Z,270.00
2018-03-21T11:41:16.390Z,270.00
2018-03-21T11:42:16.410Z,264.38
2018-03-21T11:43:16.430Z,275.63
2018-03-21T11:44:16.436Z,270.00
2018-03-21T11:45:16.452Z,270.00
2018-03-21T11:46:16.468Z,270.00
2018-03-21T11:47:16.490Z,270.00
2018-03-21T11:48:16.496Z,270.00
2018-03-21T11:49:16.511Z,270.00
2018-03-21T11:50:16.541Z,270.00
2018-03-21T11:51:16.546Z,270.00
2018-03-21T11:52:16.558Z,270.00
2018-03-21T11:53:16.584Z,270.00
2018-03-21T11:54:16.606Z,270.00
2018-03-21T11:55:16.618Z,275.63
2018-03-21T11:56:16.645Z,275.63
2018-03-21T11:57:16.639Z,275.63
2018-03-21T11:58:16.653Z,270.00
2018-03-21T11:59:16.666Z,270.00
2018-03-21T12:00:16.684Z,275.63
2018-03-21T12:01:16.711Z,281.25
2018-03-21T12:02:16.727Z,275.63
2018-03-21T12:03:16.742Z,219.38
2018-03-21T12:04:16.796Z,281.25
2018-03-21T12:05:16.771Z,275.63
2018-03-21T12:06:16.795Z,275.63
2018-03-21T12:07:16.801Z,275.63
2018-03-21T12:08:16.827Z,281.25
2018-03-21T12:09:16.825Z,281.25
2018-03-21T12:10:16.866Z,281.25
2018-03-21T12:11:16.884Z,281.25
2018-03-21T12:12:16.890Z,281.25
2018-03-21T12:13:16.895Z,281.25
2018-03-21T12:14:16.902Z,275.63
2018-03-21T12:15:16.923Z,241.88
2018-03-21T12:16:16.955Z,241.88
2018-03-21T12:17:16.978Z,281.25
2018-03-21T12:18:17.044Z,286.88
2018-03-21T12:19:16.996Z,281.25
2018-03-21T12:20:17.001Z,281.25
2018-03-21T12:21:17.021Z,281.25
2018-03-21T12:22:17.049Z,281.25
2018-03-21T12:23:17.101Z,281.25
2018-03-21T12:24:17.079Z,275.63
2018-03-21T12:25:17.091Z,281.25
2018-03-21T12:26:17.118Z,281.25
2018-03-21T12:27:17.172Z,286.88
2018-03-21T12:28:17.128Z,292.50
2018-03-21T12:29:17.224Z,298.13
2018-03-21T12:30:17.250Z,298.13
2018-03-21T12:31:17.191Z,298.13
2018-03-21T12:32:17.190Z,298.13
2018-03-21T12:33:17.255Z,298.13
2018-03-21T12:34:17.226Z,292.50
2018-03-21T12:35:17.255Z,286.88
2018-03-21T12:36:17.282Z,281.25
2018-03-21T12:37:17.278Z,281.25
2018-03-21T12:38:17.292Z,281.25
2018-03-21T12:39:17.299Z,275.63
2018-03-21T12:40:17.320Z,275.63
2018-03-21T12:41:17.342Z,281.25
2018-03-21T12:42:17.354Z,275.63
2018-03-21T12:43:17.380Z,281.25
2018-03-21T12:44:17.397Z,286.88
2018-03-21T12:45:17.402Z,281.25
2018-03-21T12:46:17.414Z,281.25